Time;durP1;ratioP1;P1;durP2;ratioP2;P2;SDS_P1;SDS_P2;PMS_P1;PMS_P2;Temp;Humidity;BMP_temperature;BMP_pressure;BME280_temperature;BME280_humidity;BME280_pressure;Samples;Min_cycle;Max_cycle;Signal;HPM_P1;HPM_P2
2024/01/21 00:01:03;;;;;;;24.40;15.23;;;;;;;-0.76;100.00;145878.91;5112901;28;20188;-57
2024/01/21 00:03:32;;;;;;;25.07;15.87;;;;;;;-0.87;100.00;145850.13;5112797;28;20183;-56
2024/01/21 00:05:59;;;;;;;24.60;16.10;;;;;;;-0.75;100.00;145881.44;5113087;28;20571;-55
2024/01/21 00:08:26;;;;;;;26.27;15.73;;;;;;;-0.83;100.00;145861.41;5112739;28;20179;-57
2024/01/21 00:10:53;;;;;;;20.20;15.50;;;;;;;-0.92;100.00;140872.97;5112965;28;20187;-55
2024/01/21 00:13:20;;;;;;;22.87;15.10;;;;;;;-0.92;100.00;140966.25;5112492;28;20237;-56
2024/01/21 00:15:47;;;;;;;23.73;16.27;;;;;;;-1.30;100.00;143319.69;5113199;28;20176;-56
2024/01/21 00:18:15;;;;;;;23.43;14.87;;;;;;;-0.81;100.00;144180.28;5112904;28;20184;-56
2024/01/21 00:20:43;;;;;;;22.37;15.20;;;;;;;-0.94;100.00;143970.47;5112530;28;20184;-55
2024/01/21 00:23:10;;;;;;;20.47;15.10;;;;;;;-1.04;100.00;144021.09;5112777;28;20179;-56
2024/01/21 00:25:37;;;;;;;27.77;16.50;;;;;;;-1.00;100.00;144443.72;5112161;28;20195;-57
2024/01/21 00:28:05;;;;;;;24.57;16.10;;;;;;;-1.07;100.00;144740.66;5112695;28;20612;-58
2024/01/21 00:30:32;;;;;;;24.33;16.17;;;;;;;-1.05;100.00;145401.16;5112344;28;20183;-55
2024/01/21 00:32:58;;;;;;;24.80;16.23;;;;;;;-1.10;100.00;144896.72;5112545;28;20558;-57
2024/01/21 00:35:25;;;;;;;28.33;17.00;;;;;;;-0.96;100.00;145404.47;5112274;28;20236;-57
2024/01/21 00:37:54;;;;;;;25.67;16.50;;;;;;;-0.85;100.00;145856.44;5112256;28;20240;-56
2024/01/21 00:40:21;;;;;;;25.27;15.50;;;;;;;-0.81;100.00;145866.44;5112856;28;20236;-55
2024/01/21 00:42:48;;;;;;;27.90;16.47;;;;;;;-0.95;100.00;145832.63;5112153;28;20191;-55
2024/01/21 00:45:15;;;;;;;23.83;16.30;;;;;;;-0.88;100.00;145847.63;5112141;28;20179;-56
2024/01/21 00:47:42;;;;;;;29.73;16.60;;;;;;;-0.87;100.00;144671.53;5112357;28;20180;-56
2024/01/21 00:50:09;;;;;;;25.73;15.43;;;;;;;-0.90;100.00;140995.41;5112104;28;20240;-56
2024/01/21 00:52:36;;;;;;;22.90;15.87;;;;;;;-0.97;100.00;134741.22;5112080;28;20188;-57
2024/01/21 00:55:06;;;;;;;23.57;15.90;;;;;;;-0.81;100.00;131438.94;5112171;28;20234;-56
2024/01/21 00:57:33;;;;;;;25.40;16.27;;;;;;;-0.66;100.00;126391.31;5112056;28;20242;-56
2024/01/21 01:00:00;;;;;;;26.30;16.17;;;;;;;-0.59;100.00;125376.19;5112342;28;20637;-57
2024/01/21 01:02:27;;;;;;;25.80;16.67;;;;;;;-0.59;100.00;123962.25;5112077;28;20241;-57
2024/01/21 01:04:54;;;;;;;25.00;16.10;;;;;;;-0.50;100.00;121960.34;5111989;28;20182;-57
2024/01/21 01:07:21;;;;;;;25.07;15.87;;;;;;;-0.49;100.00;120528.31;5112252;28;20187;-57
2024/01/21 01:09:48;;;;;;;20.03;14.70;;;;;;;-0.58;100.00;116017.63;5112242;28;20658;-56
2024/01/21 01:12:17;;;;;;;23.93;16.17;;;;;;;-0.35;100.00;115423.00;5112261;28;20195;-56
2024/01/21 01:14:44;;;;;;;22.00;15.27;;;;;;;-0.50;100.00;118335.53;5112166;28;20276;-56
2024/01/21 01:17:12;;;;;;;20.47;15.03;;;;;;;-0.37;100.00;117043.25;5112164;28;20183;-58
2024/01/21 01:19:39;;;;;;;22.40;14.37;;;;;;;-0.20;100.00;118959.44;5111861;28;20195;-57
2024/01/21 01:22:06;;;;;;;20.53;14.60;;;;;;;-0.14;100.00;121220.00;5111917;28;20187;-55
2024/01/21 01:24:33;;;;;;;21.60;14.20;;;;;;;-0.13;100.00;121327.34;5112155;28;20623;-57
2024/01/21 01:27:00;;;;;;;19.53;14.40;;;;;;;0.00;100.00;123053.63;5112077;28;20191;-56
2024/01/21 01:29:28;;;;;;;17.27;13.30;;;;;;;0.01;100.00;122868.94;5111772;28;20183;-59
2024/01/21 01:31:55;;;;;;;18.07;12.93;;;;;;;0.00;100.00;124043.50;5112043;28;20603;-57
2024/01/21 01:34:22;;;;;;;18.00;13.10;;;;;;;0.02;100.00;123382.50;5111686;28;20676;-57
2024/01/21 01:36:49;;;;;;;15.10;12.43;;;;;;;0.14;100.00;125402.78;5112707;28;20187;-57
2024/01/21 01:39:16;;;;;;;13.47;12.03;;;;;;;0.19;100.00;127289.59;5115605;28;20179;-57
2024/01/21 01:41:43;;;;;;;13.80;12.43;;;;;;;0.12;100.00;129226.53;5115569;28;20209;-57
2024/01/21 01:44:10;;;;;;;16.87;12.03;;;;;;;0.13;100.00;125311.53;5115760;28;20180;-57
2024/01/21 01:46:39;;;;;;;15.47;12.03;;;;;;;0.14;100.00;125717.13;5115837;28;20271;-57
2024/01/21 01:49:06;;;;;;;18.63;12.57;;;;;;;0.14;100.00;126770.56;5115696;28;20217;-56
2024/01/21 01:51:35;;;;;;;14.83;11.27;;;;;;;0.19;100.00;127809.47;5115401;28;20187;-57
2024/01/21 01:54:03;;;;;;;12.53;11.33;;;;;;;0.15;100.00;123570.38;5115288;28;20199;-56
2024/01/21 01:56:30;;;;;;;11.90;10.67;;;;;;;0.10;100.00;122195.88;5115129;28;20227;-56
2024/01/21 01:59:01;;;;;;;13.17;11.40;;;;;;;-0.02;100.00;120797.44;5115503;28;20213;-57
2024/01/21 02:01:29;;;;;;;11.40;10.40;;;;;;;0.05;100.00;119365.31;5115495;28;20226;-57
2024/01/21 02:03:58;;;;;;;11.20;10.23;;;;;;;0.10;100.00;119042.56;5115510;28;20175;-57
2024/01/21 02:06:25;;;;;;;11.13;10.23;;;;;;;0.14;100.00;118079.84;5115559;28;20722;-56
2024/01/21 02:08:52;;;;;;;12.37;11.17;;;;;;;0.05;100.00;117524.50;5115381;28;20183;-56
2024/01/21 02:11:19;;;;;;;14.17;10.70;;;;;;;0.18;100.00;116642.13;5115261;28;20663;-58
2024/01/21 02:13:46;;;;;;;12.37;11.10;;;;;;;0.25;100.00;114892.34;5114916;28;20252;-56
2024/01/21 02:16:13;;;;;;;10.43;9.73;;;;;;;0.22;100.00;116952.50;5115049;28;20204;-55
2024/01/21 02:18:43;;;;;;;11.00;10.10;;;;;;;0.23;100.00;117325.50;5115180;28;20558;-57
2024/01/21 02:21:12;;;;;;;10.40;9.50;;;;;;;0.01;100.00;116501.44;5114787;28;20262;-57
2024/01/21 02:23:40;;;;;;;9.33;8.50;;;;;;;0.20;100.00;116120.31;5115036;28;20179;-57
2024/01/21 02:26:07;;;;;;;8.97;8.40;;;;;;;0.24;100.00;117712.78;5115048;28;20199;-56
2024/01/21 02:28:34;;;;;;;9.53;8.93;;;;;;;0.24;100.00;119236.47;5115539;28;20184;-56
2024/01/21 02:31:01;;;;;;;10.30;9.50;;;;;;;0.25;100.00;119868.09;5114914;28;20698;-56
2024/01/21 02:33:28;;;;;;;8.80;8.23;;;;;;;0.24;100.00;119268.47;5114785;28;20188;-56
2024/01/21 02:35:55;;;;;;;9.87;8.90;;;;;;;0.28;100.00;118550.53;5114531;28;20236;-57
2024/01/21 02:38:22;;;;;;;9.37;8.77;;;;;;;0.21;100.00;116719.25;5114443;28;20233;-56
2024/01/21 02:40:51;;;;;;;9.67;8.87;;;;;;;0.32;100.00;116458.28;5114722;28;20191;-57
2024/01/21 02:43:18;;;;;;;8.43;7.83;;;;;;;0.35;100.00;117565.69;5114437;28;20240;-56
2024/01/21 02:45:45;;;;;;;8.87;8.30;;;;;;;0.33;100.00;119616.00;5114549;28;20175;-56
2024/01/21 02:48:12;;;;;;;9.47;8.67;;;;;;;0.37;100.00;119848.03;5113936;28;20241;-56
2024/01/21 02:50:39;;;;;;;9.57;8.63;;;;;;;0.43;100.00;119856.78;5114172;28;20191;-57
2024/01/21 02:53:06;;;;;;;8.80;8.20;;;;;;;0.45;100.00;122914.88;5114126;28;20244;-56
2024/01/21 02:55:33;;;;;;;8.77;8.27;;;;;;;0.47;100.00;129444.75;5114191;28;20292;-56
2024/01/21 02:58:02;;;;;;;8.77;8.13;;;;;;;0.38;100.00;131720.63;5114465;28;20720;-57
2024/01/21 03:00:29;;;;;;;9.03;8.33;;;;;;;0.30;100.00;130681.97;5114093;28;20194;-56
2024/01/21 03:02:56;;;;;;;8.97;8.10;;;;;;;0.26;100.00;128592.06;5114290;28;20183;-56
2024/01/21 03:05:24;;;;;;;8.20;7.70;;;;;;;0.18;100.00;124503.41;5114246;28;20607;-56
2024/01/21 03:07:51;;;;;;;7.90;7.37;;;;;;;0.27;100.00;121983.63;5113929;28;20187;-56
2024/01/21 03:10:18;;;;;;;7.77;7.33;;;;;;;0.18;100.00;121088.16;5114211;28;20728;-55
2024/01/21 03:12:45;;;;;;;8.20;7.70;;;;;;;0.30;100.00;121053.53;5113827;28;20180;-56
2024/01/21 03:15:13;;;;;;;8.23;7.70;;;;;;;0.20;100.00;121257.69;5113712;28;20203;-56
2024/01/21 03:17:40;;;;;;;8.07;7.57;;;;;;;0.20;100.00;120479.34;5113748;28;20180;-57
2024/01/21 03:20:08;;;;;;;7.87;7.40;;;;;;;0.35;100.00;121359.09;5114054;28;20196;-57
2024/01/21 03:22:35;;;;;;;9.37;8.63;;;;;;;0.33;100.00;121648.63;5113927;28;20256;-55
2024/01/21 03:25:02;;;;;;;7.97;7.47;;;;;;;0.38;100.00;122845.13;5113936;28;20236;-55
2024/01/21 03:27:29;;;;;;;8.53;7.83;;;;;;;0.35;100.00;124325.78;5114049;28;20206;-58
2024/01/21 03:29:56;;;;;;;8.40;7.90;;;;;;;0.33;100.00;123170.66;5113487;28;20190;-57
2024/01/21 03:32:25;;;;;;;7.50;7.03;;;;;;;0.32;100.00;123591.16;5113752;28;20241;-57
2024/01/21 03:34:52;;;;;;;8.50;8.00;;;;;;;0.28;100.00;125184.41;5113238;28;20260;-57
2024/01/21 03:37:19;;;;;;;8.60;8.10;;;;;;;0.19;100.00;125358.63;5113674;28;20695;-57
2024/01/21 03:39:46;;;;;;;8.60;8.00;;;;;;;0.39;100.00;126124.13;5113311;28;20188;-55
2024/01/21 03:42:13;;;;;;;9.20;8.70;;;;;;;0.40;100.00;127913.03;5113254;28;20244;-56
2024/01/21 03:44:40;;;;;;;9.37;8.77;;;;;;;0.22;100.00;130097.81;5113213;28;20180;-55
2024/01/21 03:47:07;;;;;;;9.13;8.53;;;;;;;0.43;100.00;128133.78;5113364;28;20535;-57
2024/01/21 03:49:36;;;;;;;9.37;8.77;;;;;;;0.49;100.00;128750.28;5112968;28;20183;-56
2024/01/21 03:52:03;;;;;;;11.10;10.20;;;;;;;0.49;100.00;131268.47;5113350;28;20649;-57
2024/01/21 03:54:30;;;;;;;10.47;9.57;;;;;;;0.52;100.00;132850.38;5112792;28;20238;-56
2024/01/21 03:56:57;;;;;;;10.23;9.43;;;;;;;0.57;100.00;134989.69;5113302;28;20236;-57
2024/01/21 03:59:24;;;;;;;11.73;10.17;;;;;;;0.55;100.00;137121.84;5112326;28;20232;-57
2024/01/21 04:01:51;;;;;;;11.10;10.20;;;;;;;0.65;100.00;137407.34;5113177;28;20607;-57
2024/01/21 04:04:18;;;;;;;10.93;10.13;;;;;;;0.68;100.00;139334.44;5112767;28;20230;-56
2024/01/21 04:06:47;;;;;;;10.90;10.00;;;;;;;0.50;100.00;141246.34;5113059;28;20591;-55
2024/01/21 04:09:15;;;;;;;10.53;9.80;;;;;;;0.58;100.00;137224.66;5112605;28;20187;-56
2024/01/21 04:11:43;;;;;;;11.60;10.63;;;;;;;0.58;100.00;136735.16;5112686;28;20274;-56
2024/01/21 04:14:10;;;;;;;12.63;11.27;;;;;;;0.61;100.00;138548.84;5112530;28;20623;-57
2024/01/21 04:16:37;;;;;;;11.67;10.67;;;;;;;0.59;100.00;139550.91;5112937;28;20188;-56
2024/01/21 04:19:04;;;;;;;11.20;10.20;;;;;;;0.59;100.00;134406.66;5112497;28;20208;-57
2024/01/21 04:21:32;;;;;;;11.10;9.60;;;;;;;0.49;100.00;130968.44;5112430;28;20319;-58
2024/01/21 04:24:01;;;;;;;10.93;10.03;;;;;;;0.56;100.00;128463.31;5112782;28;20577;-55
2024/01/21 04:26:28;;;;;;;10.80;10.00;;;;;;;0.63;100.00;128755.72;5112838;28;20656;-55
2024/01/21 04:28:55;;;;;;;11.03;10.03;;;;;;;0.45;100.00;131434.16;5112384;28;20237;-56
2024/01/21 04:31:22;;;;;;;11.73;10.57;;;;;;;0.61;100.00;131785.63;5113128;28;20240;-56
2024/01/21 04:33:49;;;;;;;12.90;10.43;;;;;;;0.68;100.00;132628.91;5112635;28;20236;-56
2024/01/21 04:36:18;;;;;;;11.30;10.40;;;;;;;0.40;100.00;133740.84;5112542;28;20623;-55
2024/01/21 04:38:45;;;;;;;11.93;10.93;;;;;;;0.55;100.00;133641.31;5112244;28;20194;-57
2024/01/21 04:41:14;;;;;;;11.93;10.87;;;;;;;0.75;100.00;133409.78;5113016;28;20187;-57
2024/01/21 04:43:42;;;;;;;12.43;11.27;;;;;;;0.76;100.00;139167.94;5112229;28;20240;-55
2024/01/21 04:46:09;;;;;;;11.70;10.73;;;;;;;0.72;100.00;141556.88;5112476;28;20607;-56
2024/01/21 04:48:36;;;;;;;12.60;11.60;;;;;;;0.69;100.00;141684.09;5112435;28;20183;-57
2024/01/21 04:51:03;;;;;;;11.37;10.57;;;;;;;0.67;100.00;141131.34;5112100;28;20236;-56
2024/01/21 04:53:30;;;;;;;10.93;10.03;;;;;;;0.70;100.00;140933.78;5112122;28;20187;-57
2024/01/21 04:55:57;;;;;;;11.73;10.73;;;;;;;0.61;100.00;139560.78;5112033;28;20235;-57
2024/01/21 04:58:27;;;;;;;9.73;9.03;;;;;;;0.51;100.00;138407.44;5112124;28;20187;-55
2024/01/21 05:00:54;;;;;;;11.50;10.60;;;;;;;0.54;100.00;132609.81;5112084;28;20190;-57
2024/01/21 05:03:21;;;;;;;11.17;10.23;;;;;;;0.61;100.00;130647.13;5112028;28;20248;-56
2024/01/21 05:05:49;;;;;;;11.03;10.23;;;;;;;0.55;100.00;131160.59;5111998;28;20228;-58
2024/01/21 05:08:16;;;;;;;12.17;11.17;;;;;;;0.64;100.00;132670.84;5112045;28;20190;-58
2024/01/21 05:10:43;;;;;;;11.67;10.67;;;;;;;0.44;100.00;137567.53;5112799;28;20187;-56
2024/01/21 05:13:10;;;;;;;11.83;10.83;;;;;;;0.52;100.00;133801.56;5116099;28;20183;-56
2024/01/21 05:15:38;;;;;;;10.17;9.47;;;;;;;0.50;100.00;134706.38;5116225;28;20665;-56
2024/01/21 05:18:05;;;;;;;11.30;10.30;;;;;;;0.49;100.00;135273.81;5115797;28;20187;-56
2024/01/21 05:20:32;;;;;;;12.27;10.97;;;;;;;0.55;100.00;137052.81;5115919;28;20180;-56
2024/01/21 05:23:00;;;;;;;10.70;9.87;;;;;;;0.53;100.00;139138.63;5115919;28;20217;-56
2024/01/21 05:25:27;;;;;;;11.17;10.17;;;;;;;0.44;100.00;139502.03;5116121;28;20262;-56
2024/01/21 05:27:54;;;;;;;11.63;10.53;;;;;;;0.47;100.00;138396.81;5116093;28;20183;-56
2024/01/21 05:30:21;;;;;;;10.93;10.13;;;;;;;0.35;100.00;139301.47;5116034;28;20646;-57
2024/01/21 05:32:51;;;;;;;11.07;10.03;;;;;;;0.41;100.00;138849.16;5115675;28;20195;-57
2024/01/21 05:35:18;;;;;;;12.63;10.67;;;;;;;0.41;100.00;137009.47;5115588;28;20214;-57
2024/01/21 05:37:45;;;;;;;10.77;9.83;;;;;;;0.38;100.00;138113.28;5115950;28;20629;-57
2024/01/21 05:40:12;;;;;;;10.73;9.93;;;;;;;-0.01;100.00;138913.94;5115972;28;20198;-56
2024/01/21 05:42:39;;;;;;;10.87;10.07;;;;;;;0.28;100.00;137265.16;5115772;28;20240;-56
2024/01/21 05:45:07;;;;;;;10.87;10.07;;;;;;;0.15;100.00;136530.78;5115795;28;20258;-56
2024/01/21 05:47:35;;;;;;;11.30;10.30;;;;;;;0.22;100.00;132480.63;5115456;28;20183;-57
2024/01/21 05:50:03;;;;;;;11.00;10.03;;;;;;;0.21;100.00;131220.44;5116508;28;20570;-57
2024/01/21 05:52:30;;;;;;;10.97;10.17;;;;;;;0.20;100.00;129976.06;5115749;28;20625;-56
2024/01/21 05:54:57;;;;;;;11.10;10.30;;;;;;;0.08;100.00;128265.88;5115079;28;20231;-57
2024/01/21 05:57:24;;;;;;;9.73;9.13;;;;;;;0.21;100.00;131193.84;5115495;28;20691;-56
2024/01/21 05:59:51;;;;;;;9.53;8.90;;;;;;;0.29;100.00;132271.97;5115398;28;20237;-56
2024/01/21 06:02:18;;;;;;;9.50;8.90;;;;;;;0.31;100.00;134569.16;5115143;28;20187;-55
2024/01/21 06:04:45;;;;;;;9.93;9.13;;;;;;;0.52;100.00;137679.81;5115390;28;20237;-57
2024/01/21 06:07:14;;;;;;;9.33;8.73;;;;;;;0.50;100.00;144208.91;5115024;28;20194;-56
2024/01/21 06:09:41;;;;;;;9.17;8.53;;;;;;;0.65;100.00;146228.41;5115013;28;20232;-56
2024/01/21 06:12:08;;;;;;;12.90;9.80;;;;;;;0.81;100.00;146268.50;5115791;28;20203;-56
2024/01/21 06:14:36;;;;;;;9.87;9.20;;;;;;;0.95;100.00;146301.09;5114819;28;20226;-56
2024/01/21 06:17:03;;;;;;;10.17;9.23;;;;;;;1.01;100.00;146316.16;5114797;28;20240;-56
2024/01/21 06:19:30;;;;;;;9.17;8.57;;;;;;;1.22;100.00;146368.84;5114886;28;20188;-56
2024/01/21 06:21:57;;;;;;;10.33;9.53;;;;;;;1.26;100.00;146378.88;5114455;28;20188;-57
2024/01/21 06:24:26;;;;;;;10.27;9.50;;;;;;;1.18;100.00;146358.81;5114681;28;20258;-57
2024/01/21 06:26:53;;;;;;;9.80;8.97;;;;;;;1.13;100.00;146346.25;5115055;28;20221;-57
2024/01/21 06:29:20;;;;;;;8.40;7.90;;;;;;;0.90;100.00;146289.81;5115042;28;20652;-56
2024/01/21 06:31:47;;;;;;;8.77;8.27;;;;;;;0.94;100.00;146299.84;5114926;28;20213;-57
2024/01/21 06:34:14;;;;;;;9.20;8.60;;;;;;;0.80;100.00;146266.03;5114579;28;20183;-56
2024/01/21 06:36:41;;;;;;;11.30;9.10;;;;;;;0.89;100.00;146288.56;5114442;28;20203;-57
2024/01/21 06:39:08;;;;;;;8.87;8.37;;;;;;;0.55;100.00;146203.38;5114470;28;20210;-56
2024/01/21 06:41:36;;;;;;;9.37;8.67;;;;;;;0.99;100.00;146312.38;5114669;28;20611;-56
2024/01/21 06:44:03;;;;;;;9.20;8.57;;;;;;;1.16;100.00;146353.78;5114607;28;20630;-56
2024/01/21 06:46:31;;;;;;;8.77;8.17;;;;;;;1.74;100.00;146499.25;5114400;28;20184;-58
2024/01/21 06:48:57;;;;;;;9.07;8.30;;;;;;;2.38;100.00;146656.16;5114261;28;20252;-56
2024/01/21 06:51:34;;;;;;;9.43;8.40;;;;;;;3.09;100.00;146834.47;5114533;28;20530;-55
2024/01/21 06:54:03;;;;;;;9.17;8.57;;;;;;;3.83;100.00;147016.63;5114444;28;20595;-56
2024/01/21 06:56:30;;;;;;;8.70;8.30;;;;;;;4.20;100.00;147108.44;5113899;28;20254;-57
2024/01/21 06:58:58;;;;;;;7.50;7.10;;;;;;;5.19;100.00;147356.22;5114110;28;20187;-57
2024/01/21 07:01:25;;;;;;;7.23;6.93;;;;;;;5.65;100.00;147469.47;5114771;28;20236;-57
2024/01/21 07:03:53;;;;;;;7.20;6.83;;;;;;;5.89;100.00;147531.25;5113962;28;20187;-56
2024/01/21 07:06:20;;;;;;;7.17;6.77;;;;;;;6.36;100.00;147648.41;5113966;28;20184;-56
2024/01/21 07:08:47;;;;;;;6.93;6.53;;;;;;;6.72;100.00;147736.56;5113945;28;20244;-57
2024/01/21 07:11:15;;;;;;;6.27;5.97;;;;;;;7.42;100.00;147911.78;5114188;28;20240;-57
2024/01/21 07:13:42;;;;;;;6.10;5.80;;;;;;;8.19;100.00;148104.69;5114149;28;20183;-57
2024/01/21 07:16:10;;;;;;;6.07;5.77;;;;;;;8.23;100.00;148113.56;5114005;28;20229;-56
2024/01/21 07:18:37;;;;;;;6.30;6.00;;;;;;;8.34;97.88;148141.34;5113635;28;20236;-57
2024/01/21 07:21:04;;;;;;;6.27;5.87;;;;;;;9.18;92.77;148352.13;5113936;28;20187;-57
2024/01/21 07:23:31;;;;;;;5.73;5.43;;;;;;;9.65;83.63;148468.31;5113709;28;20633;-57
2024/01/21 07:25:59;;;;;;;6.07;5.77;;;;;;;10.02;78.08;148560.50;5113878;28;20191;-57
2024/01/21 07:28:26;;;;;;;5.83;5.53;;;;;;;10.00;77.71;148556.75;5113857;28;20564;-56
2024/01/21 07:30:54;;;;;;;5.90;5.60;;;;;;;9.99;77.28;148552.94;5113760;28;20307;-57
2024/01/21 07:33:22;;;;;;;5.93;5.63;;;;;;;10.24;74.18;148616.19;5113695;28;20634;-57
2024/01/21 07:35:50;;;;;;;5.67;5.47;;;;;;;10.49;72.27;148679.38;5112774;28;20207;-57
2024/01/21 07:38:17;;;;;;;6.27;5.77;;;;;;;10.89;71.14;148779.25;5113288;28;20237;-56
2024/01/21 07:40:45;;;;;;;6.47;6.17;;;;;;;11.26;66.39;148871.56;5114007;28;20670;-56
2024/01/21 07:43:12;;;;;;;5.83;5.63;;;;;;;11.61;64.22;148957.56;5113231;28;20193;-58
2024/01/21 07:45:39;;;;;;;6.80;6.50;;;;;;;11.64;63.29;148965.16;5113230;28;20192;-56
2024/01/21 07:48:07;;;;;;;6.60;6.30;;;;;;;11.69;64.52;148977.81;5113368;28;20595;-59
2024/01/21 07:50:35;;;;;;;7.87;7.57;;;;;;;12.47;60.52;149172.75;5113098;28;20611;-58
2024/01/21 07:53:03;;;;;;;6.30;6.00;;;;;;;11.86;59.78;149020.88;5113057;28;20188;-57
2024/01/21 07:55:48;;;;;;;6.13;5.83;;;;;;;11.87;60.11;149023.41;5130833;27;20541;-57
2024/01/21 07:58:15;;;;;;;5.90;5.70;;;;;;;11.91;60.13;149033.53;5130409;27;20258;-57
2024/01/21 08:00:42;;;;;;;5.30;5.10;;;;;;;12.60;58.57;149205.69;5130000;27;20195;-57
2024/01/21 08:03:09;;;;;;;7.37;6.73;;;;;;;13.78;55.52;149502.13;5129910;27;20186;-58
2024/01/21 08:05:37;;;;;;;6.97;6.67;;;;;;;13.43;55.00;149413.41;5129911;27;20187;-57
2024/01/21 08:08:05;;;;;;;6.30;6.00;;;;;;;13.30;55.41;149381.75;5130123;27;20179;-58
2024/01/21 08:10:32;;;;;;;6.40;6.00;;;;;;;14.14;54.16;149593.34;5129846;28;20190;-56
2024/01/21 08:13:01;;;;;;;6.90;6.60;;;;;;;14.32;53.82;149636.47;5129800;27;20277;-57
2024/01/21 08:15:28;;;;;;;6.93;6.43;;;;;;;14.82;51.49;149762.03;5129576;28;20222;-58
2024/01/21 08:17:55;;;;;;;6.67;6.37;;;;;;;14.70;50.69;149732.88;5129666;28;20239;-57
2024/01/21 08:20:22;;;;;;;8.77;8.37;;;;;;;14.09;52.30;149579.41;5129545;28;20175;-56
2024/01/21 08:22:49;;;;;;;7.03;6.53;;;;;;;13.78;51.69;149502.13;5129925;27;20625;-57
2024/01/21 08:25:16;;;;;;;6.10;5.70;;;;;;;13.76;51.22;149497.03;5129889;27;20610;-56
2024/01/21 08:27:44;;;;;;;7.83;7.53;;;;;;;13.73;52.77;149489.44;5129789;27;20625;-57
2024/01/21 08:30:13;;;;;;;8.20;7.77;;;;;;;13.94;51.97;149541.41;5130006;28;20757;-57
2024/01/21 08:32:40;;;;;;;7.33;6.93;;;;;;;14.26;50.71;149621.28;5129365;28;20186;-56
2024/01/21 08:35:09;;;;;;;7.67;7.17;;;;;;;14.72;50.15;149737.97;5129251;28;20210;-56
2024/01/21 08:37:36;;;;;;;6.97;6.57;;;;;;;14.44;50.22;149666.94;5129518;28;20234;-57
2024/01/21 08:40:04;;;;;;;6.47;6.27;;;;;;;14.07;50.18;149575.63;5129487;28;20565;-57
2024/01/21 08:42:31;;;;;;;7.50;7.20;;;;;;;13.45;52.17;149418.50;5129153;28;20182;-56
2024/01/21 08:44:59;;;;;;;7.67;7.27;;;;;;;13.40;53.11;149405.81;5129198;27;20183;-57
2024/01/21 08:47:27;;;;;;;8.33;7.93;;;;;;;13.82;52.91;149512.25;5129469;28;20617;-56
2024/01/21 08:49:55;;;;;;;8.70;8.30;;;;;;;14.07;51.33;149575.63;5128999;27;20190;-56
2024/01/21 08:52:22;;;;;;;8.80;8.00;;;;;;;14.07;50.97;149574.34;5128996;28;20183;-56
2024/01/21 08:54:49;;;;;;;7.80;7.30;;;;;;;14.86;50.27;149773.44;5129309;28;20264;-57
2024/01/21 08:57:16;;;;;;;7.57;7.10;;;;;;;14.21;50.27;149608.59;5129204;27;20251;-56
2024/01/21 08:59:43;;;;;;;6.77;6.37;;;;;;;13.17;50.02;149350.06;5128856;27;20240;-56
2024/01/21 09:02:10;;;;;;;7.23;6.93;;;;;;;12.45;53.80;149167.69;5128814;27;20240;-57
2024/01/21 09:04:41;;;;;;;7.37;7.07;;;;;;;12.38;52.55;149151.25;5129057;27;20690;-57
2024/01/21 09:07:08;;;;;;;6.17;5.97;;;;;;;12.62;52.75;149212.00;5114436;28;20569;-56
2024/01/21 09:09:35;;;;;;;7.10;6.80;;;;;;;13.04;52.18;149317.09;5115353;28;20179;-57
2024/01/21 09:12:02;;;;;;;7.80;6.90;;;;;;;12.87;54.03;149274.03;5114871;28;20187;-57
2024/01/21 09:14:29;;;;;;;6.87;6.47;;;;;;;13.97;51.96;149550.25;5115210;27;20342;-56
2024/01/21 09:16:56;;;;;;;7.50;7.20;;;;;;;15.38;48.32;149902.84;5114946;28;20183;-56
2024/01/21 09:19:24;;;;;;;7.60;7.20;;;;;;;15.08;47.14;149828.00;5114806;28;20279;-56
2024/01/21 09:21:52;;;;;;;6.30;5.93;;;;;;;15.00;46.99;149807.69;5115042;28;20531;-56
2024/01/21 09:24:21;;;;;;;6.57;6.20;;;;;;;14.82;48.24;149762.03;5115004;28;20180;-57
2024/01/21 09:26:48;;;;;;;6.33;6.03;;;;;;;14.68;47.47;149727.81;5114735;28;20236;-56
2024/01/21 09:29:15;;;;;;;15.10;7.37;;;;;;;14.12;48.06;149587.03;5114636;27;20188;-57
2024/01/21 09:31:42;;;;;;;6.13;5.63;;;;;;;14.77;48.29;149750.63;5115335;28;20184;-57
2024/01/21 09:34:09;;;;;;;16.07;6.40;;;;;;;14.41;47.99;149660.59;5114711;28;20203;-56
2024/01/21 09:36:37;;;;;;;22.40;6.60;;;;;;;15.33;46.53;149891.44;5114440;28;20229;-58
2024/01/21 09:39:06;;;;;;;19.63;6.40;;;;;;;14.49;48.44;149679.63;5114535;28;20565;-57
2024/01/21 09:41:37;;;;;;;9.00;6.43;;;;;;;14.91;48.13;149784.88;5114342;28;20274;-57
2024/01/21 09:44:05;;;;;;;5.13;4.93;;;;;;;15.52;45.86;149938.44;5114252;28;20179;-56
2024/01/21 09:46:33;;;;;;;6.13;5.63;;;;;;;14.88;46.95;149778.53;5114674;28;20279;-57
2024/01/21 09:49:01;;;;;;;6.13;5.40;;;;;;;14.89;46.84;149781.09;5114590;28;20663;-56
2024/01/21 09:51:31;;;;;;;5.67;5.37;;;;;;;15.34;46.09;149892.69;5114525;28;20218;-57
2024/01/21 09:53:58;;;;;;;6.57;5.53;;;;;;;15.94;44.95;150043.78;5113915;28;20264;-57
2024/01/21 09:56:26;;;;;;;5.07;4.87;;;;;;;16.57;44.78;150202.50;5114090;28;20194;-56
2024/01/21 09:58:55;;;;;;;12.50;5.97;;;;;;;15.50;45.76;149933.34;5114296;28;20562;-56
2024/01/21 10:01:23;;;;;;;5.60;5.17;;;;;;;15.65;45.49;149971.44;5113919;28;20184;-56
2024/01/21 10:03:51;;;;;;;6.40;5.70;;;;;;;15.03;46.48;149816.56;5114341;28;20188;-57
2024/01/21 10:06:18;;;;;;;6.07;5.67;;;;;;;15.09;46.78;149831.81;5113892;28;20184;-56
2024/01/21 10:08:45;;;;;;;5.97;5.67;;;;;;;15.12;46.38;149836.88;5114147;28;20188;-57
2024/01/21 10:11:12;;;;;;;13.57;6.50;;;;;;;15.16;46.42;149847.00;5114055;28;20190;-55
2024/01/21 10:13:42;;;;;;;6.00;5.80;;;;;;;14.91;47.36;149786.13;5114073;28;20184;-56
2024/01/21 10:16:11;;;;;;;5.77;5.40;;;;;;;14.45;48.10;149669.47;5113821;28;20258;-58
2024/01/21 10:18:40;;;;;;;9.03;5.73;;;;;;;13.77;48.96;149499.56;5112677;28;20187;-56
2024/01/21 10:21:07;;;;;;;6.27;5.97;;;;;;;12.95;50.51;149294.28;5113940;28;20656;-56
2024/01/21 10:23:35;;;;;;;6.10;5.80;;;;;;;13.14;51.54;149342.50;5113799;28;20187;-57
2024/01/21 10:26:02;;;;;;;6.37;5.90;;;;;;;13.57;50.08;149450.19;5113813;28;20622;-56
2024/01/21 10:28:32;;;;;;;6.43;6.00;;;;;;;14.02;49.21;149562.94;5113799;27;20240;-57
2024/01/21 10:31:00;;;;;;;6.47;6.17;;;;;;;14.86;47.65;149773.44;5113725;28;20562;-56
2024/01/21 10:33:28;;;;;;;6.17;5.97;;;;;;;14.64;48.70;149718.91;5113690;28;20191;-56
2024/01/21 10:35:56;;;;;;;6.30;5.90;;;;;;;14.33;49.19;149639.00;5113620;27;20234;-56
2024/01/21 10:38:29;;;;;;;6.37;6.07;;;;;;;15.32;47.88;149887.66;5113267;28;20179;-56
2024/01/21 10:40:56;;;;;;;6.63;6.33;;;;;;;15.95;46.62;150046.31;5113085;28;20201;-57
2024/01/21 10:43:23;;;;;;;6.77;6.37;;;;;;;16.04;44.70;150069.13;5113145;28;20180;-56
2024/01/21 10:45:52;;;;;;;7.27;6.53;;;;;;;15.53;46.24;149941.00;5113912;28;20176;-55
2024/01/21 10:48:21;;;;;;;6.57;6.27;;;;;;;14.96;46.80;149798.84;5113070;28;20185;-57
2024/01/21 10:50:51;;;;;;;6.93;6.43;;;;;;;16.35;45.31;150146.59;5112995;28;20611;-55
2024/01/21 10:53:18;;;;;;;5.90;5.60;;;;;;;17.22;42.62;150365.13;5113021;28;20186;-57
2024/01/21 10:55:46;;;;;;;6.33;6.00;;;;;;;16.70;44.04;150234.25;5113128;28;20754;-57
2024/01/21 10:58:13;;;;;;;6.77;6.47;;;;;;;16.49;43.54;150182.16;5113181;28;20236;-56
2024/01/21 11:00:41;;;;;;;7.03;6.57;;;;;;;16.47;43.22;150177.06;5112887;28;20192;-56
2024/01/21 11:03:26;;;;;;;6.50;6.07;;;;;;;16.42;43.98;150164.38;5112953;28;20622;-56
2024/01/21 11:05:55;;;;;;;6.10;5.83;;;;;;;16.65;43.41;150222.81;5113483;28;20184;-56
2024/01/21 11:08:24;;;;;;;6.37;6.07;;;;;;;15.76;43.78;149998.06;5112986;28;20191;-56
2024/01/21 11:11:01;;;;;;;6.13;5.93;;;;;;;16.73;43.20;150243.16;5112596;28;20270;-56
2024/01/21 11:13:42;;;;;;;6.82;6.43;;;;;;;17.01;41.96;150313.03;5112587;28;20193;-55
2024/01/21 11:16:12;;;;;;;6.37;6.00;;;;;;;16.99;42.26;150306.66;5113030;28;20569;-56
2024/01/21 11:18:43;;;;;;;9.60;6.60;;;;;;;16.48;43.77;150179.59;5112851;28;20219;-56